Aérodrome :
LOGIN :

S'inscrire | Disclaimer

   EN    FR    IT 

 










Légende :    VFR   VFR Marginal   IFR   IFR Intensif   IFR Très Intensif
Visi : 
Plafond : 
>= 8 km
>= 3000ft
5 à 8 km
1000 à 3000 ft
1500m à 5 km
500 à 1000 ft
800 à 1500m
200 à 500 ft
< 800m
< 200 ft
Symboles :   Orages  Brouillard  Fortes neiges  Fortes précipitations  Vent > 20 kt
SIGMETs :   Divers  Orages  Givrage  Turbulence  Onde Orograph.  Cendres Volcan.






- Altitude de l'aérodrome : 604 ft
- Code IATA : LCJ


EPLL - Lodz

DERNIER METAR :
  • 131130Z 10006KT 9000 -RA FEW005 12/11 Q1000

METARs EXPIRÉS :
  • 131100Z 11005KT 080V140 8000 -RA NSC 12/11 Q1001
  • 131030Z 10006KT 070V130 5000 -RA BR FEW003 11/11 Q1001
  • 131000Z 09005KT 060V120 3400 -RA BR FEW002 10/10 Q1001
  • 130900Z VRB01KT 2100 -RA BR SCT005 BKN006 BKN013 09/09 Q1002

TAF TAF EPLL
Valide du 13 à 12h jusqu'au 14 à 12h UTC


131130Z 1312/1412 10010KT CAVOK
BECMG 1313/1315 VRB02KT 4000 BR
PROB40 1315/1321 0600 DZ FG BKN002
BECMG 1321/1323 25010KT 8000 BKN012
PROB40
TEMPO 1400/1406 BKN006
BECMG 1410/1412 VRB02KT CAVOK



MET'MAP, la Météo Aéronautique d'un coup d'oeil ! - Copyright ORBIFLY Décembre 2007 - Disclaimer

ORBIFLY MET'MAP TEAM :

Programmation & Développement : Alexandra Zaïnal
Conception & Développement : Baudouin d'Aumeries
Co-Programmation & Développement : Marc-Olivier Méhu
Soutien technique & logistique : Manuel Goepfert

Contact : metmap@orbifly.com




SOURCES & CREDITS :

   NOAA